createdAt,value
2017-05-31T00:00:51.059Z,20.14
2017-05-31T00:01:51.059Z,20.08
2017-05-31T00:02:51.058Z,20.08
2017-05-31T00:03:51.060Z,20.17
2017-05-31T00:04:51.056Z,20.01
2017-05-31T00:05:51.051Z,20.11
2017-05-31T00:06:51.053Z,20.14
2017-05-31T00:07:50.754Z,20.05
2017-05-31T00:08:50.748Z,20.06
2017-05-31T00:09:51.047Z,20.06
2017-05-31T00:10:51.058Z,20.02
2017-05-31T00:11:51.044Z,19.98
2017-05-31T00:12:51.042Z,19.92
2017-05-31T00:13:51.039Z,19.92
2017-05-31T00:14:51.039Z,20.01
2017-05-31T00:15:51.045Z,19.96
2017-05-31T00:16:51.034Z,19.91
2017-05-31T00:17:51.032Z,19.92
2017-05-31T00:18:51.030Z,19.91
2017-05-31T00:19:50.728Z,19.88
2017-05-31T00:20:51.028Z,19.91
2017-05-31T00:21:51.094Z,19.91
2017-05-31T00:22:51.089Z,19.94
2017-05-31T00:23:51.028Z,19.92
2017-05-31T00:24:51.023Z,19.86
2017-05-31T00:25:51.020Z,19.88
2017-05-31T00:26:51.018Z,19.92
2017-05-31T00:27:51.019Z,19.83
2017-05-31T00:28:51.015Z,19.83
2017-05-31T00:29:50.708Z,19.91
2017-05-31T00:30:51.012Z,19.91
2017-05-31T00:31:51.011Z,19.95
2017-05-31T00:32:51.011Z,19.91
2017-05-31T00:33:51.006Z,19.92
2017-05-31T00:34:51.005Z,19.96
2017-05-31T00:35:51.004Z,19.91
2017-05-31T00:36:51.004Z,19.92
2017-05-31T00:37:51.001Z,19.88
2017-05-31T00:38:51.002Z,19.86
2017-05-31T00:39:50.998Z,19.92
2017-05-31T00:40:50.693Z,19.96
2017-05-31T00:41:50.690Z,19.95
2017-05-31T00:42:50.992Z,19.94
2017-05-31T00:43:50.990Z,19.95
2017-05-31T00:44:50.685Z,20.03
2017-05-31T00:45:50.985Z,19.98
2017-05-31T00:46:50.986Z,19.94
2017-05-31T00:47:50.983Z,19.95
2017-05-31T00:48:50.679Z,19.94
2017-05-31T00:49:50.674Z,19.95
2017-05-31T00:50:50.976Z,19.88
2017-05-31T00:51:50.975Z,19.88
2017-05-31T00:52:50.973Z,19.96
2017-05-31T00:53:50.972Z,19.92
2017-05-31T00:54:50.969Z,19.92
2017-05-31T00:55:50.967Z,20.01
2017-05-31T00:56:50.966Z,19.92
2017-05-31T00:57:50.967Z,19.99
2017-05-31T00:58:50.968Z,19.94
2017-05-31T00:59:50.963Z,20.03
2017-05-31T01:00:50.959Z,20.03
2017-05-31T01:01:50.958Z,20.02
2017-05-31T01:02:50.958Z,20.03
2017-05-31T01:03:50.952Z,19.94
2017-05-31T01:04:50.955Z,19.92
2017-05-31T01:05:50.958Z,20.05
2017-05-31T01:06:50.948Z,19.94
2017-05-31T01:07:50.947Z,19.95
2017-05-31T01:08:50.944Z,20.02
2017-05-31T01:09:50.944Z,20.03
2017-05-31T01:10:50.942Z,19.96
2017-05-31T01:11:50.635Z,19.92
2017-05-31T01:12:50.939Z,20.05
2017-05-31T01:13:50.936Z,20.03
2017-05-31T01:14:50.934Z,19.95
2017-05-31T01:15:50.936Z,20.01
2017-05-31T01:16:50.931Z,19.92
2017-05-31T01:17:50.929Z,19.96
2017-05-31T01:18:50.931Z,19.88
2017-05-31T01:19:50.930Z,19.91
2017-05-31T01:20:50.926Z,19.95
2017-05-31T01:21:50.925Z,19.92
2017-05-31T01:22:50.922Z,19.94
2017-05-31T01:23:50.919Z,19.91
2017-05-31T01:24:50.917Z,19.87
2017-05-31T01:25:50.916Z,19.95
2017-05-31T01:26:50.917Z,19.96
2017-05-31T01:27:51.216Z,19.96
2017-05-31T01:28:50.606Z,19.84
2017-05-31T01:29:50.911Z,19.92
2017-05-31T01:30:50.606Z,19.92
2017-05-31T01:31:50.603Z,19.87
2017-05-31T01:32:50.903Z,19.86
2017-05-31T01:33:50.598Z,19.84
2017-05-31T01:34:50.601Z,19.78
2017-05-31T01:35:50.898Z,19.86
2017-05-31T01:36:50.899Z,19.83
2017-05-31T01:37:50.897Z,19.73
2017-05-31T01:38:50.892Z,19.74
2017-05-31T01:39:50.892Z,19.77
2017-05-31T01:40:50.888Z,19.68
2017-05-31T01:41:50.886Z,19.63
2017-05-31T01:42:50.832Z,19.55
2017-05-31T01:43:50.883Z,19.47
2017-05-31T01:44:50.884Z,19.44
2017-05-31T01:45:50.880Z,19.37
2017-05-31T01:46:50.879Z,19.33
2017-05-31T01:47:50.878Z,19.22
2017-05-31T01:48:50.874Z,19.18
2017-05-31T01:49:50.873Z,19.16
2017-05-31T01:50:50.872Z,18.99
2017-05-31T01:51:50.869Z,18.92
2017-05-31T01:52:50.566Z,18.88
2017-05-31T01:53:50.862Z,18.78
2017-05-31T01:54:50.864Z,18.76
2017-05-31T01:55:50.864Z,18.76
2017-05-31T01:56:50.858Z,18.67
2017-05-31T01:57:50.857Z,18.55
2017-05-31T01:58:50.852Z,18.58
2017-05-31T01:59:50.852Z,18.52
2017-05-31T02:00:50.549Z,18.42
2017-05-31T02:01:50.848Z,18.45
2017-05-31T02:02:50.845Z,18.29
2017-05-31T02:03:50.845Z,18.29
2017-05-31T02:04:50.537Z,18.23
2017-05-31T02:05:50.838Z,18.2
2017-05-31T02:06:50.837Z,18.18
2017-05-31T02:07:50.836Z,18.1
2017-05-31T02:08:50.831Z,18.07
2017-05-31T02:09:50.828Z,18.12
2017-05-31T02:10:50.827Z,18.03
2017-05-31T02:11:50.826Z,18.08
2017-05-31T02:12:50.820Z,17.95
2017-05-31T02:13:50.831Z,17.9
2017-05-31T02:14:50.819Z,17.92
2017-05-31T02:15:50.815Z,17.87
2017-05-31T02:16:50.510Z,17.79
2017-05-31T02:17:50.808Z,17.79
2017-05-31T02:18:50.808Z,17.87
2017-05-31T02:19:50.803Z,17.84
2017-05-31T02:20:50.800Z,17.81
2017-05-31T02:21:50.499Z,17.82
2017-05-31T02:22:50.795Z,17.82
2017-05-31T02:23:50.791Z,17.79
2017-05-31T02:24:50.790Z,17.87
2017-05-31T02:25:50.789Z,17.9
2017-05-31T02:26:50.783Z,17.87
2017-05-31T02:27:50.477Z,17.77
2017-05-31T02:28:50.778Z,17.86
2017-05-31T02:29:50.778Z,17.77
2017-05-31T02:30:50.773Z,17.75
2017-05-31T02:31:50.769Z,17.68
2017-05-31T02:32:50.768Z,17.68
2017-05-31T02:33:50.763Z,17.56
2017-05-31T02:34:50.457Z,17.52
2017-05-31T02:35:50.758Z,17.49
2017-05-31T02:36:50.151Z,17.48
2017-05-31T02:37:50.753Z,17.41
2017-05-31T02:38:50.761Z,17.44
2017-05-31T02:39:50.751Z,17.37
2017-05-31T02:40:50.747Z,17.33
2017-05-31T02:41:50.742Z,17.36
2017-05-31T02:42:50.741Z,17.4
2017-05-31T02:43:50.734Z,17.41
2017-05-31T02:44:50.734Z,17.4
2017-05-31T02:45:50.728Z,17.41
2017-05-31T02:46:50.726Z,17.41
2017-05-31T02:47:50.722Z,17.38
2017-05-31T02:48:50.719Z,17.38
2017-05-31T02:49:50.413Z,17.41
2017-05-31T02:50:50.714Z,17.38
2017-05-31T02:51:50.710Z,17.28
2017-05-31T02:52:50.709Z,17.37
2017-05-31T02:53:50.703Z,17.36
2017-05-31T02:54:50.396Z,17.34
2017-05-31T02:55:50.698Z,17.28
2017-05-31T02:56:50.393Z,17.25
2017-05-31T02:57:50.693Z,17.3
2017-05-31T02:58:50.691Z,17.26
2017-05-31T02:59:50.688Z,17.37
2017-05-31T03:00:50.688Z,17.36
2017-05-31T03:01:50.381Z,17.44
2017-05-31T03:02:50.679Z,17.43
2017-05-31T03:03:50.374Z,17.4
2017-05-31T03:04:50.672Z,17.43
2017-05-31T03:05:50.674Z,17.46
2017-05-31T03:06:50.363Z,17.41
2017-05-31T03:07:50.661Z,17.36
2017-05-31T03:08:50.666Z,17.38
2017-05-31T03:09:50.657Z,17.28
2017-05-31T03:10:50.351Z,17.31
2017-05-31T03:11:50.648Z,17.28
2017-05-31T03:12:50.345Z,17.28
2017-05-31T03:13:50.647Z,17.23
2017-05-31T03:14:50.639Z,17.31
2017-05-31T03:15:50.635Z,17.26
2017-05-31T03:16:50.634Z,17.26
2017-05-31T03:17:50.631Z,17.21
2017-05-31T03:18:50.629Z,17.37
2017-05-31T03:19:50.629Z,17.34
2017-05-31T03:20:50.318Z,17.33
2017-05-31T03:21:50.620Z,17.34
2017-05-31T03:22:50.613Z,17.34
2017-05-31T03:23:50.611Z,17.3
2017-05-31T03:24:50.306Z,17.26
2017-05-31T03:25:50.609Z,17.28
2017-05-31T03:26:50.606Z,17.26
2017-05-31T03:27:50.605Z,17.41
2017-05-31T03:28:50.300Z,17.43
2017-05-31T03:29:50.594Z,17.43
2017-05-31T03:30:50.591Z,17.51
2017-05-31T03:31:50.592Z,17.62
2017-05-31T03:32:50.583Z,17.58
2017-05-31T03:33:50.581Z,17.56
2017-05-31T03:34:50.577Z,17.58
2017-05-31T03:35:50.579Z,17.66
2017-05-31T03:36:50.576Z,17.66
2017-05-31T03:37:50.567Z,17.7
2017-05-31T03:38:50.565Z,17.68
2017-05-31T03:39:50.562Z,17.72
2017-05-31T03:40:50.262Z,17.71
2017-05-31T03:41:50.556Z,17.74
2017-05-31T03:42:50.253Z,17.81
2017-05-31T03:43:50.248Z,17.84
2017-05-31T03:44:50.555Z,17.72
2017-05-31T03:45:50.303Z,17.84
2017-05-31T03:46:50.241Z,17.89
2017-05-31T03:47:50.235Z,17.78
2017-05-31T03:48:50.536Z,17.84
2017-05-31T03:49:50.533Z,17.84
2017-05-31T03:50:50.530Z,17.84
2017-05-31T03:51:50.224Z,17.93
2017-05-31T03:52:50.226Z,17.97
2017-05-31T03:53:50.523Z,17.93
2017-05-31T03:54:50.517Z,17.89
2017-05-31T03:55:50.520Z,17.89
2017-05-31T03:56:50.209Z,17.81
2017-05-31T03:57:50.514Z,17.84
2017-05-31T03:58:50.511Z,17.92
2017-05-31T03:59:50.506Z,17.89
2017-05-31T04:00:50.510Z,18.05
2017-05-31T04:01:50.500Z,18.15
2017-05-31T04:02:50.496Z,18.17
2017-05-31T04:03:50.493Z,18.26
2017-05-31T04:04:50.491Z,18.37
2017-05-31T04:05:50.488Z,18.5
2017-05-31T04:06:50.485Z,18.54
2017-05-31T04:07:50.486Z,18.57
2017-05-31T04:08:50.482Z,18.72
2017-05-31T04:09:50.481Z,18.63
2017-05-31T04:10:50.477Z,18.81
2017-05-31T04:11:50.478Z,18.91
2017-05-31T04:12:50.777Z,19
2017-05-31T04:13:50.470Z,19.02
2017-05-31T04:14:50.470Z,19.18
2017-05-31T04:15:50.470Z,19.23
2017-05-31T04:16:50.464Z,19.25
2017-05-31T04:17:50.465Z,19.32
2017-05-31T04:18:50.462Z,19.33
2017-05-31T04:19:50.460Z,19.48
2017-05-31T04:20:50.459Z,19.54
2017-05-31T04:21:50.456Z,19.5
2017-05-31T04:22:50.454Z,19.65
2017-05-31T04:23:50.451Z,19.66
2017-05-31T04:24:50.449Z,19.73
2017-05-31T04:25:50.449Z,19.86
2017-05-31T04:26:50.449Z,19.92
2017-05-31T04:27:50.153Z,20.03
2017-05-31T04:28:50.511Z,20.16
2017-05-31T04:29:50.144Z,20.18
2017-05-31T04:30:50.448Z,20.23
2017-05-31T04:31:50.441Z,20.26
2017-05-31T04:32:50.442Z,20.41
2017-05-31T04:33:50.441Z,20.39
2017-05-31T04:34:50.439Z,20.57
2017-05-31T04:35:50.442Z,20.48
2017-05-31T04:36:50.133Z,20.54
2017-05-31T04:37:50.437Z,20.61
2017-05-31T04:38:50.435Z,20.58
2017-05-31T04:39:50.432Z,20.64
2017-05-31T04:40:50.434Z,20.58
2017-05-31T04:41:50.431Z,20.61
2017-05-31T04:42:50.431Z,20.62
2017-05-31T04:43:50.431Z,20.62
2017-05-31T04:44:50.430Z,20.64
2017-05-31T04:45:50.428Z,20.66
2017-05-31T04:46:50.427Z,20.7
2017-05-31T04:47:50.429Z,20.7
2017-05-31T04:48:50.426Z,20.87
2017-05-31T04:49:50.122Z,20.82
2017-05-31T04:50:50.122Z,20.8
2017-05-31T04:51:50.424Z,20.82
2017-05-31T04:52:50.125Z,20.87
2017-05-31T04:53:50.421Z,20.8
2017-05-31T04:54:50.422Z,20.8
2017-05-31T04:55:50.421Z,20.85
2017-05-31T04:56:50.419Z,20.87
2017-05-31T04:57:50.118Z,20.91
2017-05-31T04:58:50.418Z,20.92
2017-05-31T04:59:50.120Z,20.97
2017-05-31T05:00:50.416Z,20.94
2017-05-31T05:01:50.419Z,20.91
2017-05-31T05:02:50.418Z,20.85
2017-05-31T05:03:50.416Z,20.82
2017-05-31T05:04:50.416Z,20.85
2017-05-31T05:05:50.413Z,20.76
2017-05-31T05:06:50.414Z,20.84
2017-05-31T05:07:50.412Z,20.77
2017-05-31T05:08:50.411Z,20.85
2017-05-31T05:09:50.412Z,20.85
2017-05-31T05:10:50.109Z,20.72
2017-05-31T05:11:50.478Z,20.85
2017-05-31T05:12:50.412Z,20.76
2017-05-31T05:13:50.409Z,20.76
2017-05-31T05:14:50.411Z,20.87
2017-05-31T05:15:50.418Z,20.85
2017-05-31T05:16:50.409Z,20.88
2017-05-31T05:17:50.407Z,20.97
2017-05-31T05:18:50.405Z,21.03
2017-05-31T05:19:50.407Z,21.14
2017-05-31T05:20:50.404Z,21.06
2017-05-31T05:21:50.405Z,21.09
2017-05-31T05:22:50.402Z,21.21
2017-05-31T05:23:50.099Z,21.31
2017-05-31T05:24:50.402Z,21.38
2017-05-31T05:25:50.399Z,21.34
2017-05-31T05:26:50.403Z,21.38
2017-05-31T05:27:50.400Z,21.42
2017-05-31T05:28:50.403Z,21.46
2017-05-31T05:29:50.397Z,21.47
2017-05-31T05:30:50.402Z,21.59
2017-05-31T05:31:50.399Z,21.52
2017-05-31T05:32:50.400Z,21.52
2017-05-31T05:33:50.398Z,21.58
2017-05-31T05:34:50.399Z,21.52
2017-05-31T05:35:50.399Z,21.46
2017-05-31T05:36:50.398Z,21.5
2017-05-31T05:37:50.399Z,21.43
2017-05-31T05:38:50.399Z,21.42
2017-05-31T05:39:50.400Z,21.49
2017-05-31T05:40:50.396Z,21.47
2017-05-31T05:41:50.399Z,21.53
2017-05-31T05:42:50.395Z,21.64
2017-05-31T05:43:50.397Z,21.61
2017-05-31T05:44:50.397Z,21.75
2017-05-31T05:45:50.400Z,21.65
2017-05-31T05:46:50.399Z,21.64
2017-05-31T05:47:50.397Z,21.61
2017-05-31T05:48:50.402Z,21.65
2017-05-31T05:49:50.399Z,21.69
2017-05-31T05:50:50.404Z,21.8
2017-05-31T05:51:50.395Z,21.82
2017-05-31T05:52:50.399Z,21.99
2017-05-31T05:53:50.397Z,22.12
2017-05-31T05:54:50.397Z,22.21
2017-05-31T05:55:50.395Z,22.39
2017-05-31T05:56:50.400Z,22.47
2017-05-31T05:57:50.400Z,22.55
2017-05-31T05:58:50.401Z,22.43
2017-05-31T05:59:50.403Z,22.43
2017-05-31T06:00:50.401Z,22.52
2017-05-31T06:01:50.425Z,22.46
2017-05-31T06:02:50.403Z,22.46
2017-05-31T06:03:50.404Z,22.37
2017-05-31T06:04:50.102Z,22.36
2017-05-31T06:05:50.407Z,22.42
2017-05-31T06:06:50.409Z,22.54
2017-05-31T06:07:50.411Z,22.64
2017-05-31T06:08:50.413Z,23
2017-05-31T06:09:50.416Z,23.17
2017-05-31T06:10:50.423Z,23.53
2017-05-31T06:11:50.423Z,23.97
2017-05-31T06:12:50.424Z,24.28
2017-05-31T06:13:50.424Z,24.62
2017-05-31T06:14:50.128Z,24.88
2017-05-31T06:15:50.433Z,25.28
2017-05-31T06:16:50.439Z,25.54
2017-05-31T06:17:50.443Z,25.9
2017-05-31T06:18:50.448Z,26.13
2017-05-31T06:19:50.457Z,26.48
2017-05-31T06:20:50.463Z,26.81
2017-05-31T06:21:50.469Z,27.07
2017-05-31T06:22:50.477Z,27.31
2017-05-31T06:23:50.486Z,27.5
2017-05-31T06:24:50.495Z,27.75
2017-05-31T06:25:50.501Z,28.07
2017-05-31T06:26:50.509Z,28.33
2017-05-31T06:27:50.519Z,28.67
2017-05-31T06:28:50.224Z,29.08
2017-05-31T06:29:50.537Z,29.49
2017-05-31T06:30:50.244Z,29.76
2017-05-31T06:31:50.559Z,30.02
2017-05-31T06:32:50.567Z,30.32
2017-05-31T06:33:50.273Z,30.35
2017-05-31T06:34:50.591Z,30.58
2017-05-31T06:35:50.295Z,30.72
2017-05-31T06:36:50.303Z,30.92
2017-05-31T06:37:50.621Z,31.07
2017-05-31T06:38:50.631Z,31.02
2017-05-31T06:39:50.644Z,31.12
2017-05-31T06:40:50.654Z,31.34
2017-05-31T06:41:50.664Z,31.48
2017-05-31T06:42:50.677Z,31.7
2017-05-31T06:43:50.685Z,31.86
2017-05-31T06:44:50.693Z,32.03
2017-05-31T06:45:50.707Z,32.23
2017-05-31T06:46:50.414Z,32.23
2017-05-31T06:47:50.730Z,32.25
2017-05-31T06:48:50.739Z,32.37
2017-05-31T06:49:50.752Z,32.23
2017-05-31T06:50:50.763Z,32.18
2017-05-31T06:51:50.773Z,31.96
2017-05-31T06:52:50.786Z,31.78
2017-05-31T06:53:50.797Z,31.69
2017-05-31T06:54:50.808Z,31.73
2017-05-31T06:55:50.820Z,31.65
2017-05-31T06:56:50.836Z,31.53
2017-05-31T06:57:50.841Z,31.51
2017-05-31T06:58:50.552Z,31.34
2017-05-31T06:59:50.861Z,31.28
2017-05-31T07:00:50.870Z,31.17
2017-05-31T07:01:50.883Z,31.01
2017-05-31T07:02:50.893Z,30.89
2017-05-31T07:03:50.904Z,30.57
2017-05-31T07:04:50.914Z,30.35
2017-05-31T07:05:50.924Z,30.16
2017-05-31T07:06:50.986Z,30
2017-05-31T07:07:50.943Z,29.82
2017-05-31T07:08:50.953Z,29.83
2017-05-31T07:09:50.965Z,29.85
2017-05-31T07:10:50.984Z,30
2017-05-31T07:11:50.983Z,30.1
2017-05-31T07:12:50.998Z,30.26
2017-05-31T07:13:50.699Z,30.2
2017-05-31T07:14:51.013Z,30.35
2017-05-31T07:15:50.720Z,30.45
2017-05-31T07:16:51.033Z,30.31
2017-05-31T07:17:51.043Z,30.24
2017-05-31T07:18:51.055Z,30.13
2017-05-31T07:19:51.065Z,30.01
2017-05-31T07:20:50.777Z,30.11
2017-05-31T07:21:51.085Z,30.07
2017-05-31T07:22:51.096Z,30.15
2017-05-31T07:23:50.802Z,30.11
2017-05-31T07:24:51.119Z,30.17
2017-05-31T07:25:51.126Z,30.23
2017-05-31T07:26:51.137Z,30.37
2017-05-31T07:27:51.147Z,30.43
2017-05-31T07:28:51.159Z,30.42
2017-05-31T07:29:51.175Z,30.32
2017-05-31T07:30:51.180Z,30.42
2017-05-31T07:31:50.890Z,30.43
2017-05-31T07:32:51.204Z,30.49
2017-05-31T07:33:51.217Z,30.49
2017-05-31T07:34:50.920Z,30.6
2017-05-31T07:35:51.244Z,30.58
2017-05-31T07:36:51.250Z,30.7
2017-05-31T07:37:51.258Z,30.92
2017-05-31T07:38:51.271Z,30.99
2017-05-31T07:39:51.283Z,31.04
2017-05-31T07:40:51.296Z,31.19
2017-05-31T07:41:51.305Z,31.31
2017-05-31T07:42:51.315Z,31.23
2017-05-31T07:43:51.328Z,31.2
2017-05-31T07:44:51.340Z,31.04
2017-05-31T07:45:51.353Z,30.94
2017-05-31T07:46:51.362Z,30.86
2017-05-31T07:47:51.374Z,30.65
2017-05-31T07:48:51.385Z,30.51
2017-05-31T07:49:51.398Z,30.38
2017-05-31T07:50:51.105Z,30.47
2017-05-31T07:51:51.117Z,30.43
2017-05-31T07:52:51.428Z,30.26
2017-05-31T07:53:51.440Z,30.02
2017-05-31T07:54:51.451Z,29.71
2017-05-31T07:55:51.460Z,29.48
2017-05-31T07:56:51.469Z,29.11
2017-05-31T07:57:51.478Z,28.81
2017-05-31T07:58:51.489Z,28.83
2017-05-31T07:59:50.896Z,28.62
2017-05-31T08:00:51.508Z,28.51
2017-05-31T08:01:51.519Z,28.25
2017-05-31T08:02:51.525Z,28
2017-05-31T08:03:51.535Z,27.84
2017-05-31T08:04:51.543Z,27.59
2017-05-31T08:05:51.554Z,27.43
2017-05-31T08:06:51.255Z,27.17
2017-05-31T08:07:51.565Z,27
2017-05-31T08:08:51.573Z,26.82
2017-05-31T08:09:51.591Z,26.63
2017-05-31T08:10:51.591Z,26.48
2017-05-31T08:11:51.300Z,26.25
2017-05-31T08:12:51.597Z,26.02
2017-05-31T08:13:51.298Z,25.87
2017-05-31T08:14:51.613Z,25.72
2017-05-31T08:15:51.616Z,25.55
2017-05-31T08:16:51.619Z,25.47
2017-05-31T08:17:51.323Z,25.3
2017-05-31T08:18:51.629Z,25.27
2017-05-31T08:19:51.637Z,25.2
2017-05-31T08:20:51.336Z,25.1
2017-05-31T08:21:51.646Z,25.17
2017-05-31T08:22:51.706Z,25.32
2017-05-31T08:23:51.659Z,25.51
2017-05-31T08:24:51.664Z,25.67
2017-05-31T08:25:51.669Z,25.9
2017-05-31T08:26:51.372Z,25.98
2017-05-31T08:27:51.681Z,26.2
2017-05-31T08:28:51.689Z,26.28
2017-05-31T08:29:51.696Z,26.36
2017-05-31T08:30:51.710Z,26.25
2017-05-31T08:31:51.410Z,26.21
2017-05-31T08:32:51.721Z,26.32
2017-05-31T08:33:51.728Z,26.23
2017-05-31T08:34:51.736Z,26.26
2017-05-31T08:35:51.741Z,26.26
2017-05-31T08:36:51.750Z,26.21
2017-05-31T08:37:51.755Z,26.12
2017-05-31T08:38:51.459Z,25.87
2017-05-31T08:39:51.463Z,25.76
2017-05-31T08:40:51.471Z,25.62
2017-05-31T08:41:51.477Z,25.65
2017-05-31T08:42:51.785Z,25.72
2017-05-31T08:43:51.794Z,25.82
2017-05-31T08:44:51.801Z,25.9
2017-05-31T08:45:51.806Z,26.01
2017-05-31T08:46:51.811Z,26.3
2017-05-31T08:47:51.820Z,26.45
2017-05-31T08:48:51.827Z,26.69
2017-05-31T08:49:51.842Z,26.85
2017-05-31T08:50:51.845Z,27.04
2017-05-31T08:51:51.850Z,27.18
2017-05-31T08:52:51.860Z,27.12
2017-05-31T08:53:51.872Z,27.31
2017-05-31T08:54:51.876Z,27.29
2017-05-31T08:55:51.885Z,27.28
2017-05-31T08:56:51.896Z,27.13
2017-05-31T08:57:51.901Z,27.04
2017-05-31T08:58:51.912Z,26.84
2017-05-31T08:59:51.921Z,26.7
2017-05-31T09:00:51.928Z,26.58
2017-05-31T09:01:51.934Z,26.44
2017-05-31T09:02:51.941Z,26.37
2017-05-31T09:03:51.947Z,26.21
2017-05-31T09:04:51.659Z,26.21
2017-05-31T09:05:51.962Z,26.21
2017-05-31T09:06:52.029Z,26.21
2017-05-31T09:07:52.010Z,26.21
2017-05-31T09:08:51.981Z,26.18
2017-05-31T09:09:51.990Z,26.28
2017-05-31T09:10:51.993Z,26.29
2017-05-31T09:11:51.996Z,26.35
2017-05-31T09:12:51.948Z,26.4
2017-05-31T09:13:52.012Z,26.4
2017-05-31T09:14:52.018Z,26.35
2017-05-31T09:15:52.040Z,26.35
2017-05-31T09:16:52.026Z,26.28
2017-05-31T09:17:52.334Z,26.3
2017-05-31T09:18:52.041Z,26.43
2017-05-31T09:19:51.743Z,26.25
2017-05-31T09:20:51.749Z,26.26
2017-05-31T09:21:52.073Z,26.15
2017-05-31T09:22:52.058Z,26.01
2017-05-31T09:23:51.760Z,26.06
2017-05-31T09:24:51.765Z,26.1
2017-05-31T09:25:51.973Z,26.06
2017-05-31T09:26:52.077Z,25.98
2017-05-31T09:27:52.082Z,25.88
2017-05-31T09:28:52.093Z,25.94
2017-05-31T09:29:52.091Z,26.06
2017-05-31T09:30:52.095Z,26.17
2017-05-31T09:31:52.098Z,26.36
2017-05-31T09:32:52.106Z,26.35
2017-05-31T09:33:52.110Z,26.39
2017-05-31T09:34:51.810Z,26.47
2017-05-31T09:35:52.120Z,26.45
2017-05-31T09:36:52.125Z,26.36
2017-05-31T09:37:52.124Z,26.33
2017-05-31T09:38:52.129Z,26.29
2017-05-31T09:39:52.134Z,26.25
2017-05-31T09:40:52.139Z,26.23
2017-05-31T09:41:51.841Z,26.28
2017-05-31T09:42:52.153Z,26.3
2017-05-31T09:43:52.152Z,26.21
2017-05-31T09:44:51.853Z,26.15
2017-05-31T09:45:52.163Z,26.18
2017-05-31T09:46:52.166Z,26.06
2017-05-31T09:47:52.170Z,26.09
2017-05-31T09:48:52.174Z,26.06
2017-05-31T09:49:52.178Z,26.18
2017-05-31T09:50:51.878Z,26.23
2017-05-31T09:51:52.190Z,26.39
2017-05-31T09:52:52.191Z,26.55
2017-05-31T09:53:52.195Z,26.54
2017-05-31T09:54:52.201Z,26.51
2017-05-31T09:55:51.903Z,26.44
2017-05-31T09:56:51.908Z,26.35
2017-05-31T09:57:51.609Z,26.33
2017-05-31T09:58:52.224Z,26.32
2017-05-31T09:59:52.223Z,26.23
2017-05-31T10:00:52.227Z,26.2
2017-05-31T10:01:52.234Z,26.21
2017-05-31T10:02:52.234Z,26.13
2017-05-31T10:03:52.240Z,26.2
2017-05-31T10:04:52.245Z,26.36
2017-05-31T10:05:51.953Z,26.54
2017-05-31T10:06:51.951Z,26.66
2017-05-31T10:07:52.260Z,26.87
2017-05-31T10:08:52.263Z,26.94
2017-05-31T10:09:52.267Z,27
2017-05-31T10:10:52.273Z,27.07
2017-05-31T10:11:52.280Z,27.12
2017-05-31T10:12:51.978Z,27.14
2017-05-31T10:13:52.286Z,27.12
2017-05-31T10:14:52.295Z,27.03
2017-05-31T10:15:52.299Z,27.07
2017-05-31T10:16:52.302Z,26.97
2017-05-31T10:17:52.310Z,26.88
2017-05-31T10:18:52.311Z,26.81
2017-05-31T10:19:52.315Z,26.69
2017-05-31T10:20:52.321Z,26.52
2017-05-31T10:21:52.023Z,26.43
2017-05-31T10:22:52.334Z,26.18
2017-05-31T10:23:52.338Z,26.02
2017-05-31T10:24:52.347Z,26.02
2017-05-31T10:25:52.354Z,25.87
2017-05-31T10:26:52.353Z,25.94
2017-05-31T10:27:52.079Z,25.87
2017-05-31T10:28:52.359Z,25.79
2017-05-31T10:29:52.366Z,25.72
2017-05-31T10:30:52.075Z,25.65
2017-05-31T10:31:52.371Z,25.58
2017-05-31T10:32:52.378Z,25.47
2017-05-31T10:33:52.381Z,25.33
2017-05-31T10:34:52.383Z,25.35
2017-05-31T10:35:52.088Z,25.36
2017-05-31T10:36:52.394Z,25.3
2017-05-31T10:37:52.397Z,25.24
2017-05-31T10:38:52.399Z,25.27
2017-05-31T10:39:52.403Z,25.27
2017-05-31T10:40:52.427Z,25.32
2017-05-31T10:41:52.410Z,25.36
2017-05-31T10:42:52.147Z,25.51
2017-05-31T10:43:52.112Z,25.58
2017-05-31T10:44:52.420Z,25.6
2017-05-31T10:45:52.426Z,25.62
2017-05-31T10:46:52.429Z,25.7
2017-05-31T10:47:52.430Z,25.72
2017-05-31T10:48:52.130Z,25.67
2017-05-31T10:49:52.440Z,25.77
2017-05-31T10:50:52.443Z,25.83
2017-05-31T10:51:52.447Z,25.98
2017-05-31T10:52:52.148Z,26.01
2017-05-31T10:53:52.455Z,26.07
2017-05-31T10:54:52.458Z,26.13
2017-05-31T10:55:52.460Z,26.26
2017-05-31T10:56:52.468Z,26.4
2017-05-31T10:57:52.166Z,26.39
2017-05-31T10:58:51.868Z,26.26
2017-05-31T10:59:52.174Z,26.2
2017-05-31T11:00:52.182Z,26.25
2017-05-31T11:01:52.184Z,26.15
2017-05-31T11:02:52.190Z,26.2
2017-05-31T11:03:52.197Z,26.01
2017-05-31T11:04:52.500Z,25.98
2017-05-31T11:05:52.503Z,25.9
2017-05-31T11:06:52.510Z,25.77
2017-05-31T11:07:52.510Z,25.75
2017-05-31T11:08:52.214Z,25.69
2017-05-31T11:09:52.214Z,25.55
2017-05-31T11:10:52.222Z,25.46
2017-05-31T11:11:52.223Z,25.32
2017-05-31T11:12:52.226Z,25.32
2017-05-31T11:13:52.231Z,25.33
2017-05-31T11:14:52.536Z,25.18
2017-05-31T11:15:52.545Z,25.28
2017-05-31T11:16:52.546Z,25.18
2017-05-31T11:17:52.248Z,25.2
2017-05-31T11:18:52.252Z,25.35
2017-05-31T11:19:52.253Z,25.36
2017-05-31T11:20:52.253Z,25.32
2017-05-31T11:21:52.257Z,25.42
2017-05-31T11:22:52.264Z,25.47
2017-05-31T11:23:52.264Z,25.52
2017-05-31T11:24:52.575Z,25.52
2017-05-31T11:25:52.578Z,25.52
2017-05-31T11:26:52.581Z,25.61
2017-05-31T11:27:52.288Z,25.64
2017-05-31T11:28:52.586Z,25.8
2017-05-31T11:29:52.288Z,25.83
2017-05-31T11:30:52.290Z,25.87
2017-05-31T11:31:51.987Z,25.99
2017-05-31T11:32:52.294Z,26.07
2017-05-31T11:33:52.300Z,26.01
2017-05-31T11:34:52.302Z,26.07
2017-05-31T11:35:52.310Z,26.01
2017-05-31T11:36:52.616Z,26.02
2017-05-31T11:37:52.015Z,26.2
2017-05-31T11:38:52.638Z,26.25
2017-05-31T11:39:52.625Z,26.23
2017-05-31T11:40:52.329Z,26.23
2017-05-31T11:41:52.635Z,26.29
2017-05-31T11:42:52.633Z,26.23
2017-05-31T11:43:52.637Z,26.28
2017-05-31T11:44:52.338Z,26.28
2017-05-31T11:45:52.644Z,26.29
2017-05-31T11:46:52.345Z,26.3
2017-05-31T11:47:52.653Z,26.33
2017-05-31T11:48:52.655Z,26.29
2017-05-31T11:49:52.659Z,26.29
2017-05-31T11:50:52.361Z,26.28
2017-05-31T11:51:52.366Z,26.26
2017-05-31T11:52:52.369Z,26.25
2017-05-31T11:53:52.674Z,26.29
2017-05-31T11:54:52.687Z,26.3
2017-05-31T11:55:52.744Z,26.25
2017-05-31T11:56:52.687Z,26.29
2017-05-31T11:57:52.690Z,26.25
2017-05-31T11:58:52.698Z,26.26
2017-05-31T11:59:52.395Z,26.18
2017-05-31T12:00:52.698Z,26.05
2017-05-31T12:01:52.706Z,26.01
2017-05-31T12:02:52.708Z,25.87
2017-05-31T12:03:52.714Z,26.05
2017-05-31T12:04:52.717Z,26.02
2017-05-31T12:05:52.724Z,25.97
2017-05-31T12:06:52.721Z,25.99
2017-05-31T12:07:52.722Z,25.92
2017-05-31T12:08:52.431Z,26.06
2017-05-31T12:09:52.734Z,26.13
2017-05-31T12:10:52.739Z,26.23
2017-05-31T12:11:52.738Z,26.26
2017-05-31T12:12:52.743Z,26.35
2017-05-31T12:13:52.746Z,26.35
2017-05-31T12:14:52.447Z,26.37
2017-05-31T12:15:52.458Z,26.28
2017-05-31T12:16:52.759Z,26.26
2017-05-31T12:17:52.761Z,26.23
2017-05-31T12:18:52.769Z,26.13
2017-05-31T12:19:52.769Z,26.06
2017-05-31T12:20:52.774Z,25.94
2017-05-31T12:21:52.778Z,26.01
2017-05-31T12:22:52.175Z,25.87
2017-05-31T12:23:52.787Z,25.76
2017-05-31T12:24:52.789Z,25.77
2017-05-31T12:25:52.791Z,25.75
2017-05-31T12:26:52.798Z,25.67
2017-05-31T12:27:52.799Z,25.72
2017-05-31T12:28:52.506Z,25.65
2017-05-31T12:29:52.806Z,25.57
2017-05-31T12:30:52.811Z,25.52
2017-05-31T12:31:52.816Z,25.42
2017-05-31T12:32:52.817Z,25.5
2017-05-31T12:33:52.817Z,25.46
2017-05-31T12:34:52.215Z,25.42
2017-05-31T12:35:52.827Z,25.45
2017-05-31T12:36:52.829Z,25.42
2017-05-31T12:37:52.527Z,25.6
2017-05-31T12:38:52.530Z,25.55
2017-05-31T12:39:52.532Z,25.58
2017-05-31T12:40:52.842Z,25.67
2017-05-31T12:41:52.844Z,25.76
2017-05-31T12:42:52.854Z,25.76
2017-05-31T12:43:52.851Z,25.85
2017-05-31T12:44:52.854Z,25.85
2017-05-31T12:45:52.853Z,25.87
2017-05-31T12:46:52.859Z,25.88
2017-05-31T12:47:53.220Z,26.07
2017-05-31T12:48:52.261Z,26.12
2017-05-31T12:49:52.871Z,26.1
2017-05-31T12:50:52.871Z,26.09
2017-05-31T12:51:52.874Z,26.06
2017-05-31T12:52:52.896Z,26.09
2017-05-31T12:53:52.884Z,26.06
2017-05-31T12:54:52.885Z,26.05
2017-05-31T12:55:52.887Z,26.15